Time;durP1;ratioP1;P1;durP2;ratioP2;P2;SDS_P1;SDS_P2;PMS_P1;PMS_P2;Temp;Humidity;BMP_temperature;BMP_pressure;BME280_temperature;BME280_humidity;BME280_pressure;Samples;Min_cycle;Max_cycle;Signal;HPM_P1;HPM_P2
2022/08/04 00:02:30;;;;;;;9.93;4.20;;;;;;;21.72;78.84;101150.63;4990399;28;20074;-75
2022/08/04 00:05:04;;;;;;;10.20;4.00;;;;;;;21.70;79.18;101149.13;4990485;28;20053;-75
2022/08/04 00:07:43;;;;;;;9.25;4.40;;;;;;;21.68;78.71;101146.63;4989017;28;20361;-75
2022/08/04 00:10:09;;;;;;;11.52;4.10;;;;;;;21.58;79.68;101148.69;4990437;28;20391;-75
2022/08/04 00:12:42;;;;;;;8.05;4.00;;;;;;;21.63;79.16;101146.34;4988660;28;20435;-75
2022/08/04 00:15:12;;;;;;;8.00;4.00;;;;;;;21.53;80.02;101143.88;4998740;28;20025;-75
2022/08/04 00:17:43;;;;;;;8.05;4.13;;;;;;;21.51;79.91;101142.38;5009365;28;20034;-75
2022/08/04 00:20:11;;;;;;;10.23;4.20;;;;;;;21.46;79.89;101131.38;5010046;28;20113;-75
2022/08/04 00:22:39;;;;;;;11.45;4.63;;;;;;;21.46;79.50;101139.41;5008692;28;20037;-75
2022/08/04 00:25:05;;;;;;;7.63;3.70;;;;;;;21.48;78.48;101127.50;5009700;28;20068;-74
2022/08/04 00:27:31;;;;;;;11.35;3.80;;;;;;;21.48;78.24;101130.19;5007805;28;20053;-75
2022/08/04 00:29:58;;;;;;;11.88;3.85;;;;;;;21.49;78.83;101133.69;5005650;28;20026;-74
2022/08/04 00:32:25;;;;;;;8.07;3.60;;;;;;;21.47;77.91;101130.38;4989359;28;20069;-75
2022/08/04 00:34:51;;;;;;;8.07;3.85;;;;;;;21.45;77.47;101125.19;4990660;28;20384;-75
2022/08/04 00:37:20;;;;;;;9.90;3.70;;;;;;;21.48;77.51;101124.84;4990520;28;20018;-75
2022/08/04 00:39:46;;;;;;;10.23;3.58;;;;;;;21.50;76.25;101124.66;4993747;28;20452;-75
2022/08/04 00:42:53;;;;;;;6.75;3.53;;;;;;;21.49;75.87;101117.63;4992736;28;20042;-75
2022/08/04 00:45:50;;;;;;;9.82;3.33;;;;;;;21.55;75.56;101117.75;4952409;29;20036;-75
2022/08/04 00:48:34;;;;;;;10.18;3.67;;;;;;;21.57;75.85;101112.22;4993761;28;20037;-75
2022/08/04 00:51:12;;;;;;;9.00;3.40;;;;;;;21.57;76.32;101114.88;4993868;28;20084;-75
2022/08/04 00:53:54;;;;;;;12.05;3.22;;;;;;;21.54;76.86;101109.91;4993177;28;20132;-75
2022/08/04 00:56:48;;;;;;;9.45;3.20;;;;;;;21.55;76.53;101114.25;4993448;28;20400;-74
2022/08/04 00:59:22;;;;;;;8.07;3.33;;;;;;;21.47;77.05;101109.78;4992213;28;20076;-75
2022/08/04 01:01:59;;;;;;;8.63;3.13;;;;;;;21.45;76.71;101109.13;4991945;28;20033;-75
2022/08/04 01:05:02;;;;;;;10.30;3.55;;;;;;;21.43;76.28;101118.34;4991969;28;20038;-75
2022/08/04 01:07:54;;;;;;;9.07;3.30;;;;;;;21.36;77.03;101112.88;4992609;28;20026;-75
2022/08/04 01:10:47;;;;;;;11.05;3.13;;;;;;;21.33;77.45;101107.88;4984836;28;20030;-75
2022/08/04 01:13:21;;;;;;;;;;;;;;;21.46;74.88;101101.94;4993411;28;20469;-75
2022/08/04 01:15:58;;;;;;;9.18;2.70;;;;;;;21.32;76.20;101100.84;4992651;28;20000;-75
2022/08/04 01:18:34;;;;;;;10.85;3.78;;;;;;;21.29;76.67;101095.88;4992741;28;20084;-75
2022/08/04 01:21:27;;;;;;;10.73;3.13;;;;;;;21.32;76.14;101087.47;4992825;28;20030;-75
2022/08/04 01:24:28;;;;;;;9.38;3.92;;;;;;;21.36;75.13;101082.59;4993232;28;20024;-74
2022/08/04 01:27:02;;;;;;;11.50;3.53;;;;;;;21.37;74.88;101093.13;4993221;28;20037;-75
2022/08/04 01:29:40;;;;;;;9.82;3.20;;;;;;;21.43;73.98;101083.53;5009186;28;20044;-74
2022/08/04 01:32:31;;;;;;;13.65;3.78;;;;;;;21.48;73.59;101078.47;5011064;28;20068;-75
2022/08/04 01:35:07;;;;;;;11.40;3.70;;;;;;;21.52;72.92;101079.78;4985280;28;20390;-75
2022/08/04 01:37:52;;;;;;;14.70;3.58;;;;;;;21.55;72.71;101079.44;4992480;28;20030;-75
2022/08/04 01:40:20;;;;;;;13.48;3.75;;;;;;;21.62;71.60;101080.41;4992757;28;20411;-75
2022/08/04 01:42:51;;;;;;;10.20;3.28;;;;;;;21.67;71.08;101072.66;4992557;28;20022;-75
2022/08/04 01:45:17;;;;;;;9.90;3.70;;;;;;;21.76;70.49;101079.59;4992527;28;20036;-75
2022/08/04 01:47:49;;;;;;;10.15;3.53;;;;;;;21.80;70.40;101078.22;4993064;28;20511;-75
2022/08/04 01:50:14;;;;;;;15.15;3.92;;;;;;;21.86;69.72;101072.13;4990286;28;20022;-75
2022/08/04 01:52:42;;;;;;;8.63;3.38;;;;;;;21.96;69.09;101071.03;4992616;28;20034;-75
2022/08/04 01:55:10;;;;;;;12.70;3.35;;;;;;;21.94;69.12;101075.75;4993002;28;20109;-75
2022/08/04 01:57:57;;;;;;;10.77;3.30;;;;;;;21.97;69.38;101073.53;4990788;28;20114;-75
2022/08/04 02:00:27;;;;;;;12.23;2.92;;;;;;;22.00;68.47;101075.00;4992137;28;20074;-75
2022/08/04 02:02:55;;;;;;;15.57;3.15;;;;;;;21.99;68.38;101065.31;4991362;28;20033;-75
2022/08/04 02:05:22;;;;;;;10.95;3.22;;;;;;;22.02;68.52;101065.81;4991555;28;20416;-75
2022/08/04 02:08:20;;;;;;;14.88;3.92;;;;;;;22.07;68.40;101062.63;4992611;28;20547;-75
2022/08/04 02:11:21;;;;;;;9.80;3.17;;;;;;;22.09;67.60;101063.25;4992008;28;20034;-75
2022/08/04 02:13:58;;;;;;;9.77;2.78;;;;;;;22.12;67.48;101065.56;4932424;29;20650;-74
2022/08/04 02:16:36;;;;;;;9.82;2.95;;;;;;;22.18;67.35;101056.78;4984038;28;20562;-75
2022/08/04 02:19:44;;;;;;;9.95;3.05;;;;;;;22.24;67.36;101050.69;4991598;28;20023;-75
2022/08/04 02:22:16;;;;;;;10.85;3.20;;;;;;;22.29;66.44;101053.63;4950886;29;20039;-75
2022/08/04 02:24:45;;;;;;;16.27;2.95;;;;;;;22.35;66.24;101052.91;4999545;28;20451;-75
2022/08/04 02:27:13;;;;;;;12.18;2.63;;;;;;;22.41;65.64;101046.78;4991746;28;20121;-75
2022/08/04 02:29:58;;;;;;;11.25;2.67;;;;;;;22.42;66.11;101047.66;5010425;28;20045;-75
2022/08/04 02:32:28;;;;;;;12.27;3.10;;;;;;;22.41;65.49;101048.63;5006249;28;20524;-75
2022/08/04 02:35:07;;;;;;;8.23;2.63;;;;;;;22.46;65.36;101047.09;4990671;28;20030;-75
2022/08/04 02:37:34;;;;;;;12.00;2.85;;;;;;;22.52;64.95;101038.28;4990864;28;20389;-74
2022/08/04 02:40:05;;;;;;;12.50;2.90;;;;;;;22.58;64.64;101038.56;4991132;28;20072;-74
2022/08/04 02:42:31;;;;;;;13.38;3.00;;;;;;;22.58;64.63;101038.56;4991211;28;20088;-75
2022/08/04 02:44:58;;;;;;;9.68;2.80;;;;;;;22.61;64.49;101032.81;4991793;28;20435;-74
2022/08/04 02:47:26;;;;;;;9.32;2.70;;;;;;;22.63;64.28;101028.94;4990461;28;20477;-74
2022/08/04 02:49:52;;;;;;;13.60;2.75;;;;;;;22.66;64.19;101025.03;4991580;28;20061;-74
2022/08/04 02:52:19;;;;;;;12.25;2.85;;;;;;;22.62;64.21;101019.22;4990487;28;20483;-74
2022/08/04 02:54:47;;;;;;;12.52;3.08;;;;;;;22.66;63.93;101020.50;4991553;28;20484;-74
2022/08/04 02:57:16;;;;;;;9.77;2.97;;;;;;;22.67;63.81;101015.97;4991417;28;20019;-74
2022/08/04 03:00:12;;;;;;;13.20;2.90;;;;;;;22.68;64.15;101012.28;4990727;28;20500;-74
2022/08/04 03:02:58;;;;;;;9.90;2.97;;;;;;;22.68;63.81;101006.91;4989438;28;20142;-74
2022/08/04 03:05:32;;;;;;;9.40;2.63;;;;;;;22.62;64.09;101019.22;4991281;28;20057;-74
2022/08/04 03:08:21;;;;;;;13.02;2.63;;;;;;;22.61;63.95;101011.38;4991058;28;20473;-74
2022/08/04 03:11:11;;;;;;;12.48;2.70;;;;;;;22.60;64.11;101015.91;4991480;28;20380;-77
2022/08/04 03:14:14;;;;;;;13.55;2.65;;;;;;;22.57;64.41;101024.31;4990652;28;20549;-74
2022/08/04 03:16:54;;;;;;;10.07;2.25;;;;;;;22.47;65.43;101029.97;4989803;28;20030;-74
2022/08/04 03:19:41;;;;;;;9.10;2.72;;;;;;;22.45;65.52;101049.97;4990843;28;20084;-74
2022/08/04 03:22:38;;;;;;;12.88;3.05;;;;;;;22.25;66.55;101060.41;4990825;28;20026;-76
2022/08/04 03:25:22;;;;;;;10.73;3.60;;;;;;;21.99;67.46;101057.28;4991370;28;20110;-76
2022/08/04 03:28:06;;;;;;;9.75;3.30;;;;;;;21.90;67.80;101040.44;4994277;28;20499;-76
2022/08/04 03:31:09;;;;;;;13.80;2.95;;;;;;;21.87;68.03;101047.00;5010144;28;20029;-75
2022/08/04 03:33:56;;;;;;;9.63;2.97;;;;;;;21.74;68.76;101052.16;4995552;28;20032;-76
2022/08/04 03:36:43;;;;;;;11.48;3.40;;;;;;;21.59;69.13;101045.91;4988514;28;20117;-76
2022/08/04 03:39:53;;;;;;;9.38;3.17;;;;;;;21.52;69.40;101043.13;4989293;28;20137;-76
2022/08/04 03:42:37;;;;;;;10.15;3.60;;;;;;;21.40;70.12;101038.41;4989644;28;20392;-76
2022/08/04 03:45:23;;;;;;;8.70;3.38;;;;;;;21.37;70.80;101042.25;4990948;28;20030;-76
2022/08/04 03:48:07;;;;;;;7.60;3.58;;;;;;;21.20;72.02;101043.34;4990854;28;20034;-74
2022/08/04 03:53:07;;;;;;;15.05;3.97;;;;;;;21.13;71.93;101045.91;4989653;28;20026;-74
2022/08/04 03:54:19;;;;;;;9.82;4.20;;;;;;;21.08;71.59;101061.66;4990119;28;20073;-74
2022/08/04 03:56:59;;;;;;;7.63;4.00;;;;;;;20.96;72.65;101063.06;4952561;28;20040;-75
2022/08/04 03:59:51;;;;;;;13.88;4.35;;;;;;;20.92;72.89;101064.44;4990074;28;20400;-74
2022/08/04 04:02:22;;;;;;;10.70;3.95;;;;;;;20.82;73.48;101071.84;4987315;28;20505;-75
2022/08/04 04:04:56;;;;;;;9.90;4.07;;;;;;;20.72;74.00;101077.38;4989983;28;20050;-74
2022/08/04 04:07:39;;;;;;;10.57;4.40;;;;;;;20.61;74.46;101081.28;4988631;28;20049;-74
2022/08/04 04:10:20;;;;;;;12.95;4.70;;;;;;;20.65;73.94;101071.06;4990208;28;20499;-74
2022/08/04 04:13:16;;;;;;;12.75;4.13;;;;;;;20.58;74.48;101081.63;4991605;28;20029;-74
2022/08/04 04:15:57;;;;;;;19.92;4.78;;;;;;;20.59;74.99;101071.78;4994339;28;20034;-75
2022/08/04 04:18:41;;;;;;;14.32;5.15;;;;;;;20.58;74.53;101065.59;4992361;28;20034;-75
2022/08/04 04:21:31;;;;;;;14.98;4.85;;;;;;;20.55;74.82;101065.94;4994742;28;20026;-75
2022/08/04 04:24:18;;;;;;;9.80;4.72;;;;;;;20.55;74.91;101065.94;4993990;28;20480;-75
2022/08/04 04:26:56;;;;;;;11.07;5.55;;;;;;;20.43;76.37;101072.66;4994587;28;20073;-75
2022/08/04 04:29:24;;;;;;;10.80;4.72;;;;;;;20.49;76.36;101071.97;5008791;28;20084;-75
2022/08/04 04:32:02;;;;;;;11.05;4.82;;;;;;;20.50;76.09;101073.66;5011877;28;20041;-74
2022/08/04 04:34:56;;;;;;;14.60;5.22;;;;;;;20.52;75.18;101076.97;4992600;28;20030;-75
2022/08/04 04:37:49;;;;;;;14.85;5.65;;;;;;;20.45;76.22;101076.00;4988870;28;20046;-74
2022/08/04 04:41:02;;;;;;;11.05;5.13;;;;;;;20.52;75.55;101076.16;4993962;28;20030;-74
2022/08/04 04:43:42;;;;;;;10.83;5.60;;;;;;;20.46;77.29;101075.00;4955685;28;20030;-74
2022/08/04 04:46:34;;;;;;;11.25;5.20;;;;;;;20.53;77.01;101081.31;4972014;28;20114;-74
2022/08/04 04:49:18;;;;;;;14.82;5.70;;;;;;;20.52;77.31;101071.63;4989811;28;20042;-74
2022/08/04 04:51:57;;;;;;;15.55;5.95;;;;;;;20.51;76.60;101079.81;4993968;28;20030;-74
2022/08/04 04:54:32;;;;;;;11.60;4.85;;;;;;;20.60;77.93;101071.59;4993436;28;20109;-75
2022/08/04 04:57:13;;;;;;;14.95;5.18;;;;;;;20.64;77.50;101080.94;4993985;28;20033;-75
2022/08/04 04:59:52;;;;;;;10.30;4.93;;;;;;;20.63;77.88;101087.28;4993082;28;20037;-74
2022/08/04 05:02:41;;;;;;;11.98;5.30;;;;;;;20.76;77.85;101085.91;4993424;28;20025;-75
2022/08/04 05:05:29;;;;;;;15.43;5.25;;;;;;;20.75;77.66;101081.56;4994005;28;20066;-74
2022/08/04 05:07:57;;;;;;;14.95;5.85;;;;;;;20.72;78.29;101077.38;4992156;28;20439;-75
2022/08/04 05:10:44;;;;;;;11.23;5.88;;;;;;;20.79;77.74;101083.69;4993422;28;20114;-75
2022/08/04 05:13:37;;;;;;;17.05;6.10;;;;;;;20.80;77.70;101079.19;4991294;28;20032;-75
2022/08/04 05:16:26;;;;;;;14.02;5.55;;;;;;;20.81;78.27;101072.81;5005040;28;20479;-75
2022/08/04 05:19:23;;;;;;;16.05;5.40;;;;;;;20.90;77.48;101087.84;5012599;28;20041;-75
2022/08/04 05:21:59;;;;;;;13.50;5.40;;;;;;;20.87;79.60;101088.22;4999499;28;20120;-75
2022/08/04 05:24:27;;;;;;;14.85;6.00;;;;;;;20.92;79.64;101077.81;5010314;28;20103;-75
2022/08/04 05:26:58;;;;;;;15.02;5.78;;;;;;;20.94;78.71;101081.16;5011572;28;20026;-75
2022/08/04 05:29:41;;;;;;;18.83;6.10;;;;;;;21.00;78.35;101075.09;4995052;28;20710;-75
2022/08/04 05:32:14;;;;;;;11.10;5.80;;;;;;;21.10;77.99;101070.34;4993505;28;20065;-75
2022/08/04 05:34:44;;;;;;;19.17;6.35;;;;;;;21.12;78.06;101073.66;4992666;28;20030;-75
2022/08/04 05:37:17;;;;;;;17.92;5.95;;;;;;;21.22;78.14;101068.94;4993041;28;20041;-75
2022/08/04 05:39:54;;;;;;;19.05;6.82;;;;;;;21.29;76.37;101058.38;4991909;28;20037;-75
2022/08/04 05:42:21;;;;;;;16.92;5.90;;;;;;;21.36;76.74;101053.16;4991955;28;20110;-75
2022/08/04 05:44:47;;;;;;;19.80;6.93;;;;;;;21.46;76.12;101051.88;4991815;28;20504;-75
2022/08/04 05:47:14;;;;;;;15.75;5.85;;;;;;;21.52;79.01;101058.38;4992695;28;20125;-75
2022/08/04 05:49:41;;;;;;;17.42;6.07;;;;;;;21.53;79.81;101058.19;4992080;28;20122;-75
2022/08/04 05:52:09;;;;;;;10.10;6.10;;;;;;;21.66;79.19;101065.63;4993119;28;20164;-74
2022/08/04 05:54:37;;;;;;;17.23;6.75;;;;;;;21.66;78.38;101065.63;4992860;28;20026;-75
2022/08/04 05:57:04;;;;;;;14.32;6.53;;;;;;;21.70;78.40;101069.63;4992323;28;20104;-75
2022/08/04 05:59:30;;;;;;;20.55;7.50;;;;;;;21.73;78.10;101069.25;4992306;28;20062;-75
2022/08/04 06:01:58;;;;;;;16.90;7.25;;;;;;;21.78;77.13;101074.06;4991413;28;20105;-75
2022/08/04 06:04:37;;;;;;;15.65;7.28;;;;;;;21.73;77.16;101071.09;4991566;28;20026;-74
2022/08/04 06:07:03;;;;;;;15.90;7.95;;;;;;;21.72;76.95;101072.13;4992682;28;20058;-75
2022/08/04 06:09:29;;;;;;;14.85;7.60;;;;;;;21.75;77.03;101074.44;4991575;28;20333;-75
2022/08/04 06:11:59;;;;;;;20.88;8.25;;;;;;;21.70;76.96;101069.63;4992440;28;20033;-75
2022/08/04 06:14:25;;;;;;;20.30;8.63;;;;;;;21.77;76.99;101075.91;4991967;28;20026;-75
2022/08/04 06:16:53;;;;;;;19.80;7.78;;;;;;;21.84;77.24;101084.06;4991868;28;20157;-75
2022/08/04 06:19:21;;;;;;;28.30;8.65;;;;;;;21.85;77.07;101075.00;4990696;28;20396;-75
2022/08/04 06:21:48;;;;;;;20.02;8.63;;;;;;;21.97;76.47;101072.72;4992458;28;20052;-75
2022/08/04 06:24:19;;;;;;;16.58;9.25;;;;;;;22.03;75.69;101074.69;4990001;28;20030;-75
2022/08/04 06:26:48;;;;;;;19.10;8.98;;;;;;;22.10;75.14;101072.97;4991107;28;20026;-75
2022/08/04 06:29:22;;;;;;;27.27;9.23;;;;;;;22.27;74.21;101074.44;5007118;28;20438;-75
2022/08/04 06:32:01;;;;;;;22.60;8.85;;;;;;;22.38;74.69;101079.34;5011250;28;20153;-75
2022/08/04 06:34:27;;;;;;;21.55;9.38;;;;;;;22.52;74.29;101070.47;4991692;28;20034;-75
2022/08/04 06:36:53;;;;;;;21.17;9.60;;;;;;;22.69;74.29;101075.63;4991955;28;20026;-75
2022/08/04 06:39:21;;;;;;;20.00;9.90;;;;;;;22.72;73.70;101089.50;4989513;28;20610;-75
2022/08/04 06:41:49;;;;;;;22.52;9.15;;;;;;;22.82;74.98;101083.91;4992098;28;20033;-75
2022/08/04 06:44:14;;;;;;;18.35;9.50;;;;;;;22.94;73.96;101087.75;4990429;28;20398;-75
2022/08/04 06:46:41;;;;;;;13.85;9.02;;;;;;;23.12;72.99;101090.84;4989654;28;20031;-75
2022/08/04 06:49:07;;;;;;;21.08;9.70;;;;;;;23.22;73.22;101089.72;4990740;28;20033;-75
2022/08/04 06:51:35;;;;;;;18.33;8.85;;;;;;;23.34;74.15;101088.19;4990681;28;20030;-75
2022/08/04 06:54:01;;;;;;;21.85;9.23;;;;;;;23.33;72.33;101091.91;4991845;28;20536;-75
2022/08/04 06:56:30;;;;;;;24.35;10.07;;;;;;;23.43;72.79;101097.78;4991244;28;20029;-75
2022/08/04 06:58:56;;;;;;;18.70;9.48;;;;;;;23.43;72.69;101095.94;4991239;28;20022;-75
2022/08/04 07:01:24;;;;;;;14.75;8.63;;;;;;;23.53;73.08;101092.91;4991118;28;20515;-75
2022/08/04 07:03:51;;;;;;;15.98;8.55;;;;;;;23.55;71.56;101096.28;4991711;28;20026;-75
2022/08/04 07:06:17;;;;;;;21.88;9.20;;;;;;;23.57;72.08;101088.03;4990841;28;20476;-75
2022/08/04 07:08:43;;;;;;;19.13;9.20;;;;;;;23.64;71.84;101086.25;4991657;28;20030;-75
2022/08/04 07:11:11;;;;;;;19.08;9.45;;;;;;;23.63;71.58;101087.28;4991369;28;20026;-75
2022/08/04 07:13:37;;;;;;;16.20;9.32;;;;;;;23.66;72.46;101092.25;4990877;28;20550;-75
2022/08/04 07:16:04;;;;;;;18.92;8.93;;;;;;;23.80;71.21;101096.72;4991265;28;20496;-76
2022/08/04 07:18:30;;;;;;;20.90;9.32;;;;;;;23.93;70.03;101094.13;4990915;28;20042;-75
2022/08/04 07:20:56;;;;;;;16.80;9.15;;;;;;;23.92;70.06;101091.63;4990792;28;20014;-76
2022/08/04 07:23:24;;;;;;;17.15;8.80;;;;;;;24.04;70.18;101096.31;4989577;28;20390;-75
2022/08/04 07:25:51;;;;;;;16.80;8.63;;;;;;;24.08;70.23;101102.13;4990144;28;20097;-75
2022/08/04 07:28:18;;;;;;;15.05;8.57;;;;;;;24.21;69.81;101102.22;4998053;28;20045;-75
2022/08/04 07:30:44;;;;;;;16.00;9.65;;;;;;;24.21;69.74;101107.59;5010921;28;20033;-75
2022/08/04 07:33:10;;;;;;;17.00;9.18;;;;;;;24.47;68.85;101108.81;5000176;28;20624;-75
2022/08/04 07:35:37;;;;;;;16.08;8.57;;;;;;;24.69;68.87;101110.38;4989272;28;20084;-75
2022/08/04 07:38:03;;;;;;;13.77;8.13;;;;;;;24.94;67.60;101114.25;4991239;28;20510;-75
2022/08/04 07:40:29;;;;;;;17.92;7.93;;;;;;;25.18;66.54;101101.28;4990775;28;20086;-75
2022/08/04 07:42:55;;;;;;;14.05;7.30;;;;;;;25.41;65.39;101093.69;5005706;28;20049;-74
2022/08/04 07:45:23;;;;;;;13.40;6.97;;;;;;;25.60;64.82;101100.94;4990582;28;20479;-75
2022/08/04 07:47:49;;;;;;;13.63;6.75;;;;;;;25.92;63.88;101104.72;4988880;28;20113;-74
2022/08/04 07:50:15;;;;;;;12.93;6.53;;;;;;;26.18;63.35;101101.19;4991072;28;20129;-75
2022/08/04 07:52:41;;;;;;;11.50;6.78;;;;;;;26.31;61.85;101102.22;4989444;28;20058;-75
2022/08/04 07:55:07;;;;;;;20.77;7.10;;;;;;;26.37;62.50;101106.78;4990612;28;20100;-74
2022/08/04 07:57:32;;;;;;;14.40;7.15;;;;;;;26.54;62.39;101095.34;4990510;28;20033;-75
2022/08/04 07:59:58;;;;;;;16.55;6.80;;;;;;;26.59;61.71;101101.97;4990936;28;20030;-75
2022/08/04 08:02:24;;;;;;;16.05;6.45;;;;;;;26.76;62.17;101109.38;4989916;28;20022;-75
2022/08/04 08:04:51;;;;;;;10.18;6.68;;;;;;;26.93;60.17;101119.72;4990883;28;20026;-75
2022/08/04 08:07:18;;;;;;;12.90;6.53;;;;;;;26.99;59.44;101118.88;4990827;28;20041;-75
2022/08/04 08:09:44;;;;;;;14.70;6.07;;;;;;;27.17;60.13;101116.28;5006678;28;20030;-75
2022/08/04 08:12:10;;;;;;;10.27;5.75;;;;;;;27.14;59.25;101117.56;5005703;28;20396;-75
2022/08/04 08:14:36;;;;;;;12.85;5.95;;;;;;;27.41;59.39;101123.66;4990747;28;20022;-75
2022/08/04 08:17:02;;;;;;;8.98;5.22;;;;;;;27.54;58.13;101125.44;4990406;28;20034;-74
2022/08/04 08:19:32;;;;;;;10.93;5.30;;;;;;;27.78;56.67;101123.84;4990281;28;20478;-74
2022/08/04 08:21:58;;;;;;;7.70;4.88;;;;;;;27.89;55.92;101120.41;4990744;28;20428;-75
2022/08/04 08:24:24;;;;;;;10.32;4.03;;;;;;;28.08;55.58;101122.13;4988909;28;20026;-75
2022/08/04 08:26:49;;;;;;;15.00;3.75;;;;;;;28.16;55.04;101110.19;4989413;28;20105;-75
2022/08/04 08:29:15;;;;;;;9.07;3.75;;;;;;;28.01;54.10;101118.63;5005698;28;20078;-75
2022/08/04 08:31:40;;;;;;;9.63;3.60;;;;;;;27.84;54.36;101133.78;5007977;28;20032;-75
2022/08/04 08:34:07;;;;;;;11.35;3.97;;;;;;;27.68;54.66;101123.50;4992542;28;20022;-74
2022/08/04 08:36:46;;;;;;;9.07;3.30;;;;;;;27.61;56.03;101133.47;4990149;28;20026;-75
2022/08/04 08:39:20;;;;;;;11.90;3.50;;;;;;;27.65;55.29;101134.78;4989847;28;20057;-75
2022/08/04 08:42:09;;;;;;;9.75;2.85;;;;;;;27.85;55.14;101140.84;4989366;28;20491;-75
2022/08/04 08:44:47;;;;;;;7.38;2.28;;;;;;;27.69;53.50;101147.63;4988626;28;20037;-75
2022/08/04 08:47:30;;;;;;;6.80;2.28;;;;;;;27.74;54.69;101146.97;4988936;28;20081;-75
2022/08/04 08:50:20;;;;;;;11.07;3.63;;;;;;;27.80;54.01;101151.50;4990491;28;20504;-75
2022/08/04 08:53:14;;;;;;;11.65;2.85;;;;;;;27.85;54.45;101150.84;4988596;28;20031;-75
2022/08/04 08:56:01;;;;;;;8.70;2.50;;;;;;;27.72;54.85;101157.19;4990473;28;20053;-75
2022/08/04 08:58:38;;;;;;;8.32;2.17;;;;;;;28.00;54.02;101146.75;4989630;28;20027;-74
2022/08/04 09:01:06;;;;;;;9.98;2.47;;;;;;;28.26;53.19;101148.44;4992047;28;20400;-74
2022/08/04 09:03:59;;;;;;;10.23;2.42;;;;;;;28.29;53.73;101156.09;4992007;28;20046;-75
2022/08/04 09:06:24;;;;;;;6.28;2.30;;;;;;;28.26;52.51;101144.91;4993067;28;20036;-75
2022/08/04 09:08:59;;;;;;;9.33;2.40;;;;;;;28.36;52.84;101156.03;4993855;28;20030;-75
2022/08/04 09:11:36;;;;;;;6.88;2.10;;;;;;;28.33;51.41;101164.59;4993343;28;20277;-75
2022/08/04 09:14:16;;;;;;;7.65;2.50;;;;;;;28.23;52.94;101156.13;4992996;28;20050;-75
2022/08/04 09:16:52;;;;;;;6.35;2.50;;;;;;;28.30;53.28;101160.47;4993485;28;20069;-75
2022/08/04 09:19:20;;;;;;;14.38;2.58;;;;;;;28.22;50.87;101151.78;4992489;28;20034;-75
2022/08/04 09:22:18;;;;;;;6.90;2.10;;;;;;;28.18;52.39;101154.09;4993580;28;20057;-75
2022/08/04 09:24:59;;;;;;;6.63;1.90;;;;;;;28.10;51.67;101165.22;4992260;28;20026;-75
2022/08/04 09:27:42;;;;;;;6.80;2.00;;;;;;;28.13;51.89;101180.16;4992849;28;20108;-75
2022/08/04 09:30:14;;;;;;;9.30;2.10;;;;;;;28.07;51.40;101176.47;5013122;28;20030;-75
2022/08/04 09:32:45;;;;;;;10.82;2.08;;;;;;;28.03;50.94;101181.50;5006603;28;20026;-75
2022/08/04 09:35:18;;;;;;;9.65;2.28;;;;;;;27.97;51.52;101176.94;4991052;28;20459;-74
2022/08/04 09:38:11;;;;;;;11.20;2.13;;;;;;;28.06;52.80;101174.81;4992004;28;20044;-75
2022/08/04 09:40:45;;;;;;;8.40;1.85;;;;;;;27.92;50.48;101193.00;4992534;28;20473;-75
2022/08/04 09:43:46;;;;;;;11.30;2.40;;;;;;;27.77;51.06;101189.78;4991554;28;20473;-75
2022/08/04 09:46:21;;;;;;;11.38;2.53;;;;;;;27.77;51.63;101206.03;4992648;28;20030;-75
2022/08/04 09:48:52;;;;;;;11.38;2.35;;;;;;;27.75;51.30;101200.00;4992620;28;20026;-74
2022/08/04 09:51:49;;;;;;;10.65;2.47;;;;;;;27.71;52.30;101193.38;4993629;28;20037;-75
2022/08/04 09:54:33;;;;;;;8.50;2.20;;;;;;;27.57;52.38;101207.97;4992453;28;20023;-75
2022/08/04 09:57:15;;;;;;;8.73;2.53;;;;;;;27.41;52.69;101210.13;4992131;28;20030;-75
2022/08/04 10:00:09;;;;;;;9.32;2.55;;;;;;;27.42;53.13;101221.78;4992720;28;20038;-75
2022/08/04 10:02:38;;;;;;;12.18;2.50;;;;;;;27.18;52.68;101228.72;4992338;28;20029;-75
2022/08/04 10:05:09;;;;;;;8.98;2.50;;;;;;;26.87;54.74;101220.50;4992928;28;20102;-75
2022/08/04 10:08:37;;;;;;;10.43;2.78;;;;;;;26.83;54.91;101222.78;4992662;28;20022;-76
2022/08/04 10:11:13;;;;;;;13.93;2.55;;;;;;;26.45;56.32;101206.44;4916240;29;20576;-75
2022/08/04 10:13:56;;;;;;;13.20;2.55;;;;;;;26.39;56.67;101215.34;4932424;29;20394;-75
2022/08/04 10:16:44;;;;;;;10.43;2.50;;;;;;;26.27;57.35;101252.06;4980827;28;20440;-76
2022/08/04 10:19:27;;;;;;;9.65;2.55;;;;;;;26.09;58.08;101280.47;4992225;28;20058;-76
2022/08/04 10:22:32;;;;;;;11.85;2.60;;;;;;;25.94;59.12;101309.47;4990950;28;20041;-75
2022/08/04 10:25:27;;;;;;;10.07;2.63;;;;;;;25.69;61.70;101327.22;4992558;28;20385;-75
2022/08/04 10:28:07;;;;;;;9.25;2.70;;;;;;;25.41;64.18;101303.00;4996515;28;20056;-75
2022/08/04 10:30:38;;;;;;;8.85;2.85;;;;;;;25.04;69.28;101301.56;5010750;28;20029;-74
2022/08/04 10:33:21;;;;;;;6.95;3.10;;;;;;;24.80;69.31;101292.00;5002301;28;20370;-74
2022/08/04 10:35:49;;;;;;;10.07;3.10;;;;;;;24.49;73.93;101282.47;4992217;28;20117;-74
2022/08/04 10:38:39;;;;;;;11.13;3.10;;;;;;;24.33;72.99;101267.41;4990031;28;20105;-74
2022/08/04 10:41:20;;;;;;;12.75;3.67;;;;;;;24.18;75.27;101241.59;4992278;28;20027;-75
2022/08/04 10:44:08;;;;;;;15.05;3.63;;;;;;;24.01;79.26;101233.78;4991335;28;20025;-75
2022/08/04 10:46:45;;;;;;;7.57;3.45;;;;;;;24.00;79.86;101218.66;4990130;28;20041;-75
2022/08/04 10:49:36;;;;;;;12.10;3.85;;;;;;;24.08;77.81;101224.97;4990317;28;20026;-75
2022/08/04 10:52:08;;;;;;;15.45;3.60;;;;;;;24.05;81.09;101234.25;4991412;28;20030;-75
2022/08/04 10:54:50;;;;;;;11.75;3.88;;;;;;;23.95;78.03;101222.97;4990081;28;20117;-75
2022/08/04 10:57:22;;;;;;;10.32;4.25;;;;;;;24.23;78.73;101226.56;4991544;28;20026;-76
2022/08/04 11:00:04;;;;;;;14.50;4.82;;;;;;;24.31;79.21;101249.81;4990051;28;20030;-76
2022/08/04 11:02:36;;;;;;;9.93;3.75;;;;;;;24.28;78.24;101253.72;4990015;28;20030;-75
2022/08/04 11:05:16;;;;;;;9.90;3.88;;;;;;;24.27;79.02;101257.44;4990047;28;20038;-76
2022/08/04 11:07:46;;;;;;;10.68;4.25;;;;;;;24.12;79.75;101248.59;4992076;28;20022;-75
2022/08/04 11:10:12;;;;;;;17.27;4.32;;;;;;;24.08;79.89;101244.63;4991977;28;20022;-75
2022/08/04 11:12:42;;;;;;;17.38;4.80;;;;;;;23.99;82.43;101233.13;4991116;28;20052;-75
2022/08/04 11:15:12;;;;;;;15.52;4.85;;;;;;;23.88;80.02;101219.38;4993110;28;20064;-75
2022/08/04 11:17:42;;;;;;;15.32;4.85;;;;;;;23.71;81.49;101232.25;5011066;28;20036;-75
2022/08/04 11:20:20;;;;;;;12.20;4.55;;;;;;;23.73;81.41;101232.88;5010683;28;20485;-75
2022/08/04 11:23:01;;;;;;;13.90;4.70;;;;;;;23.81;80.49;101230.06;5010593;28;20087;-75
2022/08/04 11:25:35;;;;;;;13.43;4.95;;;;;;;24.02;80.42;101229.25;5010343;28;20084;-75
2022/08/04 11:28:11;;;;;;;11.32;5.28;;;;;;;24.15;80.10;101218.63;5004563;28;20057;-75
2022/08/04 11:30:46;;;;;;;15.48;5.40;;;;;;;24.40;82.32;101237.06;4991281;28;20038;-75
2022/08/04 11:33:28;;;;;;;11.55;5.40;;;;;;;24.93;79.82;101239.13;4988844;28;20030;-75
2022/08/04 11:36:05;;;;;;;12.32;5.43;;;;;;;25.47;75.53;101230.28;4989984;28;20034;-75
2022/08/04 11:38:48;;;;;;;16.63;5.95;;;;;;;25.88;74.71;101224.84;4990581;28;20400;-75
2022/08/04 11:41:20;;;;;;;10.55;4.43;;;;;;;26.04;71.15;101229.03;4990256;28;20030;-75
2022/08/04 11:43:57;;;;;;;10.13;4.18;;;;;;;26.34;69.50;101234.03;4991482;28;20022;-76
2022/08/04 11:46:46;;;;;;;11.13;3.45;;;;;;;26.63;67.10;101233.63;5005468;28;20030;-76
2022/08/04 11:49:30;;;;;;;9.68;3.45;;;;;;;26.98;64.61;101230.63;4990301;28;20034;-75
2022/08/04 11:51:59;;;;;;;8.18;3.65;;;;;;;27.10;64.35;101223.56;4991023;28;20034;-75
2022/08/04 11:54:24;;;;;;;7.30;3.05;;;;;;;27.23;64.32;101215.44;4988635;28;20038;-76
2022/08/04 11:56:50;;;;;;;11.20;2.97;;;;;;;27.06;63.21;101227.72;4991014;28;20059;-76
2022/08/04 11:59:17;;;;;;;9.25;3.38;;;;;;;27.02;64.73;101231.91;4990605;28;20549;-75
2022/08/04 12:02:28;;;;;;;7.40;3.50;;;;;;;27.12;64.79;101232.28;4990429;28;20027;-75
2022/08/04 12:04:57;;;;;;;5.97;3.08;;;;;;;27.30;63.18;101240.56;4971464;28;20449;-75